Time;durP1;ratioP1;P1;durP2;ratioP2;P2;SDS_P1;SDS_P2;PMS_P1;PMS_P2;Temp;Humidity;BMP_temperature;BMP_pressure;BME280_temperature;BME280_humidity;BME280_pressure;Samples;Min_cycle;Max_cycle;Signal;HPM_P1;HPM_P2
2023/07/30 00:00:57;;;;;;;11.45;4.78;;;;;;;;;;5075014;28;20044;-78
2023/07/30 00:03:23;;;;;;;12.45;5.00;;;;;;;;;;5057570;28;20045;-78
2023/07/30 00:05:56;;;;;;;11.63;4.88;;;;;;;;;;5061302;28;20047;-77
2023/07/30 00:08:22;;;;;;;9.95;4.40;;;;;;;;;;5070395;28;20036;-77
2023/07/30 00:10:48;;;;;;;13.65;4.63;;;;;;;;;;5067983;28;20123;-79
2023/07/30 00:13:14;;;;;;;12.02;4.28;;;;;;;;;;5067977;28;20204;-79
2023/07/30 00:15:40;;;;;;;9.32;4.50;;;;;;;;;;5068106;28;20477;-79
2023/07/30 00:18:06;;;;;;;13.68;4.63;;;;;;;;;;5068012;28;20048;-79
2023/07/30 00:20:35;;;;;;;13.45;4.40;;;;;;;;;;5058861;28;20048;-79
2023/07/30 00:23:01;;;;;;;12.13;4.30;;;;;;;;;;5067496;28;20048;-77
2023/07/30 00:25:27;;;;;;;13.40;4.75;;;;;;;;;;5076124;28;20044;-79
2023/07/30 00:27:53;;;;;;;11.68;4.03;;;;;;;;;;5069453;28;20510;-77
2023/07/30 00:30:19;;;;;;;11.10;4.45;;;;;;;;;;5070016;28;20036;-78
2023/07/30 00:32:45;;;;;;;11.00;4.25;;;;;;;;;;5068134;28;20036;-79
2023/07/30 00:35:11;;;;;;;13.45;4.45;;;;;;;;;;5068047;28;20046;-77
2023/07/30 00:37:37;;;;;;;13.10;4.38;;;;;;;;;;5066799;28;20055;-78
2023/07/30 00:40:04;;;;;;;15.15;4.38;;;;;;;;;;5049685;28;20051;-79
2023/07/30 00:42:30;;;;;;;10.70;4.20;;;;;;;;;;5065039;28;20037;-79
2023/07/30 00:44:56;;;;;;;12.05;4.55;;;;;;;;;;5066030;28;20037;-79
2023/07/30 00:47:22;;;;;;;13.10;4.50;;;;;;;;;;5063357;28;20044;-78
2023/07/30 00:49:49;;;;;;;15.25;4.28;;;;;;;;;;5064060;28;20465;-78
2023/07/30 00:52:16;;;;;;;16.00;4.60;;;;;;;;;;5047665;28;20513;-78
2023/07/30 00:54:42;;;;;;;15.40;4.40;;;;;;;;;;5067182;28;20550;-78
2023/07/30 00:57:09;;;;;;;18.65;5.10;;;;;;;;;;5050686;28;20103;-78
2023/07/30 00:59:35;;;;;;;12.82;4.57;;;;;;;;;;5049120;28;20053;-78
2023/07/30 01:02:03;;;;;;;15.60;4.40;;;;;;;;;;5045305;28;20595;-79
2023/07/30 01:04:29;;;;;;;12.98;4.88;;;;;;;;;;5048965;28;20147;-77
2023/07/30 01:06:55;;;;;;;14.95;4.40;;;;;;;;;;5047628;28;20041;-77
2023/07/30 01:09:21;;;;;;;14.15;4.63;;;;;;;;;;5044505;28;20045;-77
2023/07/30 01:11:48;;;;;;;17.20;5.00;;;;;;;;;;5029037;28;20044;-78
2023/07/30 01:14:15;;;;;;;14.35;4.82;;;;;;;;;;5048885;28;20041;-78
2023/07/30 01:16:41;;;;;;;14.90;4.82;;;;;;;;;;5051950;28;20065;-79
2023/07/30 01:19:08;;;;;;;12.80;4.78;;;;;;;;;;5056224;28;20041;-78
2023/07/30 01:21:34;;;;;;;15.63;4.78;;;;;;;;;;5056707;28;20423;-78
2023/07/30 01:24:00;;;;;;;13.75;4.90;;;;;;;;;;5051625;28;20067;-79
2023/07/30 01:26:31;;;;;;;14.45;5.07;;;;;;;;;;5044873;28;20049;-77
2023/07/30 01:28:58;;;;;;;11.55;4.50;;;;;;;;;;5046732;28;20029;-79
2023/07/30 01:31:26;;;;;;;14.95;4.93;;;;;;;;;;5045981;28;20041;-78
2023/07/30 01:33:54;;;;;;;13.73;5.15;;;;;;;;;;5044405;28;20041;-77
2023/07/30 01:36:21;;;;;;;20.73;5.70;;;;;;;;;;5046252;28;20048;-78
2023/07/30 01:38:48;;;;;;;14.88;4.97;;;;;;;;;;5047334;28;20044;-77
2023/07/30 01:41:14;;;;;;;16.70;5.32;;;;;;;;;;5046967;28;20045;-78
2023/07/30 01:43:40;;;;;;;12.93;4.95;;;;;;;;;;5046191;28;20506;-78
2023/07/30 01:46:06;;;;;;;14.75;4.93;;;;;;;;;;5045197;28;20049;-78
2023/07/30 01:48:32;;;;;;;15.13;5.20;;;;;;;;;;5047519;28;20055;-78
2023/07/30 01:50:58;;;;;;;12.00;4.30;;;;;;;;;;5044391;28;20832;-77
2023/07/30 01:53:24;;;;;;;16.08;4.93;;;;;;;;;;5042466;28;20099;-78
2023/07/30 01:55:51;;;;;;;15.20;4.72;;;;;;;;;;5053492;28;20052;-77
2023/07/30 01:58:17;;;;;;;16.40;4.70;;;;;;;;;;5071069;28;20040;-77
2023/07/30 02:00:43;;;;;;;14.68;5.00;;;;;;;;;;5074845;28;20053;-77
2023/07/30 02:03:09;;;;;;;11.25;4.20;;;;;;;;;;5073704;28;20036;-77
2023/07/30 02:05:35;;;;;;;13.55;4.80;;;;;;;;;;5067619;28;20045;-78
2023/07/30 02:08:01;;;;;;;16.33;4.63;;;;;;;;;;5055014;28;20172;-78
2023/07/30 02:10:27;;;;;;;17.85;5.15;;;;;;;;;;5055756;28;20036;-78
2023/07/30 02:12:53;;;;;;;12.57;4.47;;;;;;;;;;5065499;28;20045;-78
2023/07/30 02:15:19;;;;;;;15.48;4.40;;;;;;;;;;5066234;28;20072;-78
2023/07/30 02:17:46;;;;;;;14.02;4.50;;;;;;;;;;5066004;28;20094;-79
2023/07/30 02:20:12;;;;;;;14.23;4.70;;;;;;;;;;5074371;28;20049;-79
2023/07/30 02:22:38;;;;;;;15.05;4.65;;;;;;;;;;5067308;28;20044;-77
2023/07/30 02:25:04;;;;;;;14.52;3.75;;;;;;;;;;5072228;28;20037;-78
2023/07/30 02:27:30;;;;;;;13.32;4.10;;;;;;;;;;5076764;28;20076;-78
2023/07/30 02:29:56;;;;;;;12.52;3.67;;;;;;;;;;5076260;28;20438;-77
2023/07/30 02:32:22;;;;;;;16.50;4.32;;;;;;;;;;5071717;28;20422;-78
2023/07/30 02:34:49;;;;;;;14.25;4.25;;;;;;;;;;5078666;28;20041;-78
2023/07/30 02:37:15;;;;;;;17.33;4.78;;;;;;;;;;5069657;28;20047;-77
2023/07/30 02:39:41;;;;;;;13.43;4.43;;;;;;;;;;5072861;28;20049;-78
2023/07/30 02:42:07;;;;;;;14.00;4.35;;;;;;;;;;5058884;28;20402;-78
2023/07/30 02:44:33;;;;;;;18.15;3.65;;;;;;;;;;5058717;28;20070;-78
2023/07/30 02:46:59;;;;;;;14.52;3.78;;;;;;;;;;5075594;28;20037;-78
2023/07/30 02:49:25;;;;;;;10.77;3.45;;;;;;;;;;5069734;28;20041;-78
2023/07/30 02:51:51;;;;;;;15.82;3.92;;;;;;;;;;5056823;28;20490;-78
2023/07/30 02:54:20;;;;;;;12.25;3.72;;;;;;;;;;5068624;28;20058;-78
2023/07/30 02:56:46;;;;;;;12.77;3.90;;;;;;;;;;5071501;28;20422;-78
2023/07/30 02:59:12;;;;;;;12.20;3.60;;;;;;;;;;5053943;28;20046;-79
2023/07/30 03:01:38;;;;;;;13.23;3.58;;;;;;;;;;5057149;28;20165;-78
2023/07/30 03:04:05;;;;;;;15.40;4.07;;;;;;;;;;5072694;28;20036;-78
2023/07/30 03:06:31;;;;;;;14.05;3.75;;;;;;;;;;5072914;28;20044;-78
2023/07/30 03:08:57;;;;;;;14.15;3.53;;;;;;;;;;5077014;28;20040;-78
2023/07/30 03:11:23;;;;;;;13.57;3.78;;;;;;;;;;5072612;28;20046;-78
2023/07/30 03:13:49;;;;;;;15.25;3.90;;;;;;;;;;5066482;28;20102;-78
2023/07/30 03:16:16;;;;;;;14.77;3.90;;;;;;;;;;5058516;28;21089;-78
2023/07/30 03:18:42;;;;;;;12.52;3.80;;;;;;;;;;5077124;28;20044;-79
2023/07/30 03:21:08;;;;;;;12.90;3.72;;;;;;;;;;5073253;28;20040;-78
2023/07/30 03:23:34;;;;;;;14.63;3.70;;;;;;;;;;5073762;28;20051;-79
2023/07/30 03:26:00;;;;;;;12.43;3.75;;;;;;;;;;5072969;28;20092;-78
2023/07/30 03:28:26;;;;;;;12.48;3.85;;;;;;;;;;5076540;28;20040;-79
2023/07/30 03:30:52;;;;;;;14.88;3.58;;;;;;;;;;5077694;28;20137;-78
2023/07/30 03:33:19;;;;;;;12.15;3.70;;;;;;;;;;5070027;28;20048;-79
2023/07/30 03:35:45;;;;;;;14.20;3.65;;;;;;;;;;5069787;28;20052;-78
2023/07/30 03:38:11;;;;;;;12.68;3.58;;;;;;;;;;5073564;28;20105;-78
2023/07/30 03:40:37;;;;;;;15.90;3.63;;;;;;;;;;5069166;28;20076;-77
2023/07/30 03:43:03;;;;;;;12.75;4.05;;;;;;;;;;5072406;28;20039;-78
2023/07/30 03:45:29;;;;;;;11.73;3.67;;;;;;;;;;5068084;28;20105;-78
2023/07/30 03:47:55;;;;;;;11.73;3.25;;;;;;;;;;5069085;28;20063;-78
2023/07/30 03:50:21;;;;;;;12.13;3.40;;;;;;;;;;5070495;28;20044;-78
2023/07/30 03:52:47;;;;;;;11.57;3.65;;;;;;;;;;5065674;28;20048;-78
2023/07/30 03:55:13;;;;;;;12.38;3.63;;;;;;;;;;5071132;28;20144;-78
2023/07/30 03:57:39;;;;;;;12.55;3.40;;;;;;;;;;5072600;28;20052;-78
2023/07/30 04:00:06;;;;;;;12.20;3.47;;;;;;;;;;5073097;28;20467;-78
2023/07/30 04:02:32;;;;;;;10.68;3.30;;;;;;;;;;5074216;28;20045;-78
2023/07/30 04:04:58;;;;;;;13.00;4.13;;;;;;;;;;5068053;28;20040;-79
2023/07/30 04:07:24;;;;;;;14.73;3.60;;;;;;;;;;5065067;28;20155;-78
2023/07/30 04:09:50;;;;;;;14.07;3.83;;;;;;;;;;5073447;28;20047;-78
2023/07/30 04:12:16;;;;;;;12.10;3.88;;;;;;;;;;5069688;28;20036;-78
2023/07/30 04:14:42;;;;;;;13.63;3.63;;;;;;;;;;5039010;28;20072;-78
2023/07/30 04:17:08;;;;;;;12.35;3.85;;;;;;;;;;5071538;28;20049;-77
2023/07/30 04:19:34;;;;;;;18.17;4.43;;;;;;;;;;5071740;28;20376;-77
2023/07/30 04:22:00;;;;;;;10.15;3.30;;;;;;;;;;5074666;28;20265;-77
2023/07/30 04:24:26;;;;;;;12.93;4.32;;;;;;;;;;5072192;28;20093;-77
2023/07/30 04:26:53;;;;;;;13.30;4.32;;;;;;;;;;5075386;28;20048;-77
2023/07/30 04:29:19;;;;;;;12.88;3.97;;;;;;;;;;5050390;28;20444;-78
2023/07/30 04:31:45;;;;;;;13.27;4.15;;;;;;;;;;5068434;28;20058;-78
2023/07/30 04:34:11;;;;;;;14.80;3.97;;;;;;;;;;5070988;28;20454;-78
2023/07/30 04:36:37;;;;;;;10.85;4.10;;;;;;;;;;5071203;28;20174;-78
2023/07/30 04:39:03;;;;;;;12.82;4.15;;;;;;;;;;5067774;28;20068;-79
2023/07/30 04:41:29;;;;;;;12.93;4.90;;;;;;;;;;5065575;28;20053;-79
2023/07/30 04:43:56;;;;;;;13.27;4.20;;;;;;;;;;5067118;28;20525;-79
2023/07/30 04:46:22;;;;;;;13.65;4.25;;;;;;;;;;5072037;28;20400;-79
2023/07/30 04:48:48;;;;;;;16.83;4.53;;;;;;;;;;5076163;28;20087;-80
2023/07/30 04:51:14;;;;;;;13.90;4.50;;;;;;;;;;5074562;28;20491;-79
2023/07/30 04:53:40;;;;;;;11.05;4.03;;;;;;;;;;5078370;28;20093;-78
2023/07/30 04:56:06;;;;;;;15.20;4.20;;;;;;;;;;5072504;28;20056;-79
2023/07/30 04:58:32;;;;;;;14.48;4.53;;;;;;;;;;5061431;28;20036;-77
2023/07/30 05:00:59;;;;;;;12.85;4.85;;;;;;;;;;5057892;28;20367;-78
2023/07/30 05:03:27;;;;;;;14.18;4.60;;;;;;;;;;5070988;28;20119;-78
2023/07/30 05:05:53;;;;;;;18.98;4.88;;;;;;;;;;5068655;28;20041;-78
2023/07/30 05:08:20;;;;;;;13.30;4.13;;;;;;;;;;5070163;28;20507;-78
2023/07/30 05:10:46;;;;;;;15.02;4.57;;;;;;;;;;5062905;28;20047;-78
2023/07/30 05:13:12;;;;;;;18.73;5.00;;;;;;;;;;5069843;28;20483;-78
2023/07/30 05:15:39;;;;;;;18.85;5.03;;;;;;;;;;5070073;28;20040;-79
2023/07/30 05:18:05;;;;;;;14.32;4.40;;;;;;;;;;5073182;28;20041;-78
2023/07/30 05:20:31;;;;;;;15.93;4.32;;;;;;;;;;5075786;28;20509;-78
2023/07/30 05:22:57;;;;;;;12.73;4.70;;;;;;;;;;5074367;28;20052;-78
2023/07/30 05:25:23;;;;;;;15.63;5.05;;;;;;;;;;5069865;28;20040;-78
2023/07/30 05:27:49;;;;;;;13.80;4.75;;;;;;;;;;5068846;28;20044;-79
2023/07/30 05:30:15;;;;;;;15.63;4.43;;;;;;;;;;5070446;28;20049;-79
2023/07/30 05:32:41;;;;;;;18.00;4.80;;;;;;;;;;5065050;28;20389;-78
2023/07/30 05:35:08;;;;;;;15.20;4.50;;;;;;;;;;5074567;28;20082;-77
2023/07/30 05:37:34;;;;;;;17.15;5.55;;;;;;;;;;5067232;28;20048;-78
2023/07/30 05:40:00;;;;;;;15.95;4.50;;;;;;;;;;5072265;28;20044;-78
2023/07/30 05:42:26;;;;;;;16.30;4.88;;;;;;;;;;5073314;28;20181;-78
2023/07/30 05:44:52;;;;;;;15.85;4.75;;;;;;;;;;5072904;28;20068;-77
2023/07/30 05:47:19;;;;;;;13.30;4.47;;;;;;;;;;5069466;28;20056;-78
2023/07/30 05:49:45;;;;;;;17.55;5.03;;;;;;;;;;5067331;28;20398;-78
2023/07/30 05:52:11;;;;;;;16.65;5.35;;;;;;;;;;5071935;28;20056;-78
2023/07/30 05:54:37;;;;;;;15.57;5.35;;;;;;;;;;5072297;28;20382;-78
2023/07/30 05:57:03;;;;;;;16.50;5.35;;;;;;;;;;5063635;28;20049;-79
2023/07/30 05:59:29;;;;;;;16.92;5.03;;;;;;;;;;5064457;28;20048;-77
2023/07/30 06:01:59;;;;;;;20.10;5.57;;;;;;;;;;5047042;28;20052;-78
2023/07/30 06:04:25;;;;;;;16.25;4.80;;;;;;;;;;5071274;28;20513;-78
2023/07/30 06:06:51;;;;;;;14.70;5.45;;;;;;;;;;5073986;28;20055;-79
2023/07/30 06:09:17;;;;;;;19.50;4.82;;;;;;;;;;5074057;28;20049;-76
2023/07/30 06:11:43;;;;;;;17.25;4.57;;;;;;;;;;5055975;28;20049;-78
2023/07/30 06:14:09;;;;;;;17.92;5.70;;;;;;;;;;5061600;28;20049;-78
2023/07/30 06:16:35;;;;;;;16.00;5.47;;;;;;;;;;5065357;28;20495;-78
2023/07/30 06:19:01;;;;;;;14.52;5.05;;;;;;;;;;5055176;28;20048;-78
2023/07/30 06:21:27;;;;;;;15.75;4.68;;;;;;;;;;5070631;28;20041;-78
2023/07/30 06:23:53;;;;;;;14.65;4.70;;;;;;;;;;5072422;28;20044;-77
2023/07/30 06:26:19;;;;;;;16.15;5.10;;;;;;;;;;5067317;28;20464;-78
2023/07/30 06:28:46;;;;;;;15.23;4.55;;;;;;;;;;5070477;28;20039;-76
2023/07/30 06:31:12;;;;;;;18.25;5.25;;;;;;;;;;5061989;28;20441;-76
2023/07/30 06:33:38;;;;;;;17.10;4.78;;;;;;;;;;5067835;28;20474;-76
2023/07/30 06:36:04;;;;;;;21.25;5.70;;;;;;;;;;5059466;28;20112;-77
2023/07/30 06:38:30;;;;;;;15.98;4.90;;;;;;;;;;5069935;28;20045;-77
2023/07/30 06:40:59;;;;;;;14.43;5.50;;;;;;;;;;5068599;28;20066;-77
2023/07/30 06:43:25;;;;;;;18.13;5.57;;;;;;;;;;5069049;28;20055;-77
2023/07/30 06:45:51;;;;;;;16.85;5.55;;;;;;;;;;5067401;28;20371;-77
2023/07/30 06:48:17;;;;;;;19.02;5.32;;;;;;;;;;5064739;28;20136;-77
2023/07/30 06:50:43;;;;;;;17.92;4.80;;;;;;;;;;5066281;28;20048;-77
2023/07/30 06:53:09;;;;;;;21.20;5.28;;;;;;;;;;5068613;28;20047;-77
2023/07/30 06:55:35;;;;;;;19.98;5.03;;;;;;;;;;5042965;28;20049;-77
2023/07/30 06:58:02;;;;;;;20.45;5.38;;;;;;;;;;5071007;28;20049;-76
2023/07/30 07:00:28;;;;;;;17.13;5.05;;;;;;;;;;5071513;28;20056;-77
2023/07/30 07:02:54;;;;;;;21.05;4.97;;;;;;;;;;5072263;28;20559;-77
2023/07/30 07:05:20;;;;;;;20.10;5.22;;;;;;;;;;5074242;28;20402;-76
2023/07/30 07:07:46;;;;;;;22.33;5.63;;;;;;;;;;5067009;28;20688;-77
2023/07/30 07:10:13;;;;;;;17.15;5.28;;;;;;;;;;5073133;28;20105;-78
2023/07/30 07:12:39;;;;;;;17.88;4.38;;;;;;;;;;5071161;28;20072;-77
2023/07/30 07:15:06;;;;;;;20.10;5.13;;;;;;;;;;5074692;28;20127;-77
2023/07/30 07:17:32;;;;;;;17.95;5.28;;;;;;;;;;5073345;28;20044;-76
2023/07/30 07:19:58;;;;;;;16.92;4.68;;;;;;;;;;5073468;28;20047;-77
2023/07/30 07:22:24;;;;;;;17.45;4.57;;;;;;;;;;5072993;28;20079;-77
2023/07/30 07:24:55;;;;;;;15.93;5.07;;;;;;;;;;5072219;28;20037;-77
2023/07/30 07:27:23;;;;;;;19.67;5.10;;;;;;;;;;5071124;28;20055;-76
2023/07/30 07:29:49;;;;;;;20.65;5.05;;;;;;;;;;5069181;28;20047;-77
2023/07/30 07:32:15;;;;;;;19.42;4.53;;;;;;;;;;5072213;28;20047;-76
2023/07/30 07:34:41;;;;;;;21.38;5.03;;;;;;;;;;5068132;28;20093;-76
2023/07/30 07:37:07;;;;;;;19.30;4.70;;;;;;;;;;5049352;28;20048;-76
2023/07/30 07:39:34;;;;;;;17.30;4.22;;;;;;;;;;5069677;28;20044;-76
2023/07/30 07:42:00;;;;;;;18.63;4.20;;;;;;;;;;5051373;28;20195;-76
2023/07/30 07:44:26;;;;;;;13.95;3.65;;;;;;;;;;5068962;28;20494;-77
2023/07/30 07:46:52;;;;;;;14.73;3.85;;;;;;;;;;5073810;28;20410;-77
2023/07/30 07:49:18;;;;;;;16.88;3.78;;;;;;;;;;5073943;28;20052;-77
2023/07/30 07:51:44;;;;;;;17.45;4.60;;;;;;;;;;5073136;28;20051;-76
2023/07/30 07:54:10;;;;;;;21.90;3.95;;;;;;;;;;5072499;28;20036;-77
2023/07/30 07:56:36;;;;;;;22.70;4.50;;;;;;;;;;5073668;28;20080;-76
2023/07/30 07:59:02;;;;;;;17.50;3.83;;;;;;;;;;5074116;28;20083;-77
2023/07/30 08:01:28;;;;;;;17.92;3.95;;;;;;;;;;5071458;28;20521;-76
2023/07/30 08:03:55;;;;;;;16.05;5.05;;;;;;;;;;5072629;28;20041;-77
2023/07/30 08:06:21;;;;;;;15.82;3.78;;;;;;;;;;5069651;28;20040;-77
2023/07/30 08:08:47;;;;;;;14.73;3.75;;;;;;;;;;5064550;28;20040;-76
2023/07/30 08:11:13;;;;;;;15.85;3.88;;;;;;;;;;5072560;28;20047;-76
2023/07/30 08:13:39;;;;;;;15.88;4.18;;;;;;;;;;5073366;28;20045;-76
2023/07/30 08:16:05;;;;;;;16.58;3.50;;;;;;;;;;5070515;28;20074;-76
2023/07/30 08:18:32;;;;;;;19.42;4.35;;;;;;;;;;5060166;28;20202;-76
2023/07/30 08:20:58;;;;;;;22.60;4.97;;;;;;;;;;5064573;28;20033;-76
2023/07/30 08:23:24;;;;;;;14.50;3.80;;;;;;;;;;5070929;28;20064;-76
2023/07/30 08:25:50;;;;;;;14.45;3.70;;;;;;;;;;5072180;28;20804;-77
2023/07/30 08:28:16;;;;;;;16.38;4.00;;;;;;;;;;5056325;28;20048;-76
2023/07/30 08:30:42;;;;;;;13.60;3.50;;;;;;;;;;5067638;28;20124;-75
2023/07/30 08:33:08;;;;;;;15.02;3.92;;;;;;;;;;5068584;28;20465;-76
2023/07/30 08:35:34;;;;;;;15.95;3.72;;;;;;;;;;5071346;28;20484;-76
2023/07/30 08:38:00;;;;;;;16.92;3.88;;;;;;;;;;5073316;28;20474;-76
2023/07/30 08:40:26;;;;;;;15.10;3.60;;;;;;;;;;5070482;28;20504;-76
2023/07/30 08:42:52;;;;;;;17.02;3.13;;;;;;;;;;5069911;28;20343;-76
2023/07/30 08:45:18;;;;;;;15.38;3.63;;;;;;;;;;5078242;28;20404;-77
2023/07/30 08:47:45;;;;;;;14.07;3.22;;;;;;;;;;5070327;28;20068;-76
2023/07/30 08:50:11;;;;;;;16.90;3.38;;;;;;;;;;5071188;28;20068;-77
2023/07/30 08:52:37;;;;;;;17.02;3.53;;;;;;;;;;5067356;28;20175;-76
2023/07/30 08:55:04;;;;;;;15.27;2.65;;;;;;;;;;5063780;28;20033;-77
2023/07/30 08:57:31;;;;;;;13.55;3.17;;;;;;;;;;5064207;28;20470;-75
2023/07/30 09:00:05;;;;;;;14.80;2.90;;;;;;;;;;5067778;28;20076;-77
2023/07/30 09:02:35;;;;;;;15.25;3.35;;;;;;;;;;5068424;28;20040;-78
2023/07/30 09:05:01;;;;;;;14.02;3.03;;;;;;;;;;5060435;28;20036;-77
2023/07/30 09:07:28;;;;;;;13.13;3.25;;;;;;;;;;5066481;28;20514;-77
2023/07/30 09:09:54;;;;;;;18.55;2.90;;;;;;;;;;5066299;28;20053;-76
2023/07/30 09:12:20;;;;;;;13.68;2.78;;;;;;;;;;5070326;28;20043;-78
2023/07/30 09:14:51;;;;;;;15.68;3.53;;;;;;;;;;5066270;28;20502;-77
2023/07/30 09:17:18;;;;;;;13.07;2.78;;;;;;;;;;5069525;28;20040;-76
2023/07/30 09:19:46;;;;;;;16.17;3.53;;;;;;;;;;5066629;28;20056;-77
2023/07/30 09:22:13;;;;;;;13.40;3.08;;;;;;;;;;5072953;28;20128;-76
2023/07/30 09:24:45;;;;;;;13.18;3.13;;;;;;;;;;5072846;28;20045;-77
2023/07/30 09:27:11;;;;;;;13.18;3.10;;;;;;;;;;5076149;28;20039;-77
2023/07/30 09:29:37;;;;;;;13.38;3.45;;;;;;;;;;5069578;28;20052;-77
2023/07/30 09:32:03;;;;;;;13.75;3.35;;;;;;;;;;5077694;28;20044;-77
2023/07/30 09:34:30;;;;;;;13.02;4.10;;;;;;;;;;5074485;28;20098;-77
2023/07/30 09:36:56;;;;;;;14.15;3.42;;;;;;;;;;5051408;28;20041;-78
2023/07/30 09:39:24;;;;;;;16.13;3.90;;;;;;;;;;5064350;28;20498;-77
2023/07/30 09:41:59;;;;;;;15.57;3.70;;;;;;;;;;5064289;28;20072;-77
2023/07/30 09:44:26;;;;;;;13.40;3.65;;;;;;;;;;5061596;28;20352;-77
2023/07/30 09:46:52;;;;;;;13.82;3.65;;;;;;;;;;5064296;28;20502;-77
2023/07/30 09:49:18;;;;;;;18.73;4.20;;;;;;;;;;5071783;28;20046;-77
2023/07/30 09:51:45;;;;;;;13.55;3.58;;;;;;;;;;5074867;28;20048;-77
2023/07/30 09:54:12;;;;;;;37.53;5.97;;;;;;;;;;5075219;28;20044;-77
2023/07/30 09:56:40;;;;;;;13.60;3.35;;;;;;;;;;5052607;28;20064;-78
2023/07/30 09:59:06;;;;;;;12.48;3.25;;;;;;;;;;5073656;28;20127;-78
2023/07/30 10:01:56;;;;;;;12.90;3.45;;;;;;;;;;5055793;28;20052;-77
2023/07/30 10:04:22;;;;;;;13.57;3.00;;;;;;;;;;5071222;28;20509;-77
2023/07/30 10:06:53;;;;;;;10.82;2.63;;;;;;;;;;5066135;28;20041;-76
2023/07/30 10:09:21;;;;;;;16.70;2.58;;;;;;;;;;5069438;28;20059;-77
2023/07/30 10:11:48;;;;;;;15.68;2.90;;;;;;;;;;5067567;28;20037;-77
2023/07/30 10:14:15;;;;;;;16.05;2.50;;;;;;;;;;5069582;28;20206;-77
2023/07/30 10:16:50;;;;;;;9.82;2.10;;;;;;;;;;5071225;28;20044;-77
2023/07/30 10:19:16;;;;;;;10.40;2.28;;;;;;;;;;5063223;28;20576;-77
2023/07/30 10:21:42;;;;;;;9.00;2.10;;;;;;;;;;5071584;28;20081;-77
2023/07/30 10:24:10;;;;;;;7.88;2.00;;;;;;;;;;5069153;28;20045;-77
2023/07/30 10:26:37;;;;;;;10.35;2.40;;;;;;;;;;5067571;28;20513;-77
2023/07/30 10:29:13;;;;;;;8.15;1.90;;;;;;;;;;5038470;28;20048;-76
2023/07/30 10:31:40;;;;;;;8.55;1.75;;;;;;;;;;5071801;28;20102;-76
2023/07/30 10:34:10;;;;;;;8.50;2.10;;;;;;;;;;5072503;28;20036;-76
2023/07/30 10:36:47;;;;;;;10.68;2.10;;;;;;;;;;5073101;28;20045;-76
2023/07/30 10:39:13;;;;;;;7.95;1.95;;;;;;;;;;5069654;28;20048;-77
2023/07/30 10:41:39;;;;;;;7.20;1.88;;;;;;;;;;5070157;28;20569;-75
2023/07/30 10:44:05;;;;;;;8.32;2.22;;;;;;;;;;5053894;28;20037;-76
2023/07/30 10:46:32;;;;;;;12.13;2.10;;;;;;;;;;5072475;28;20517;-76
2023/07/30 10:48:58;;;;;;;11.60;2.08;;;;;;;;;;5073989;28;20080;-76
2023/07/30 10:51:24;;;;;;;10.25;2.03;;;;;;;;;;5074465;28;20043;-76
2023/07/30 10:53:51;;;;;;;14.00;2.30;;;;;;;;;;5071987;28;20469;-76
2023/07/30 10:56:18;;;;;;;10.88;2.38;;;;;;;;;;5056592;28;20060;-77
2023/07/30 10:58:49;;;;;;;11.73;2.38;;;;;;;;;;5074039;28;20060;-76
2023/07/30 11:01:15;;;;;;;10.43;2.30;;;;;;;;;;5069697;28;20451;-76
2023/07/30 11:03:41;;;;;;;16.73;2.28;;;;;;;;;;5071253;28;20576;-76
2023/07/30 11:06:10;;;;;;;10.25;2.10;;;;;;;;;;5074455;28;20044;-76
2023/07/30 11:08:37;;;;;;;10.45;2.10;;;;;;;;;;5075264;28;20048;-77
2023/07/30 11:11:04;;;;;;;10.95;2.30;;;;;;;;;;5070516;28;20048;-77
2023/07/30 11:13:35;;;;;;;9.30;2.40;;;;;;;;;;5070004;28;20090;-77
2023/07/30 11:16:01;;;;;;;12.23;2.67;;;;;;;;;;5056271;28;20120;-77
2023/07/30 11:18:32;;;;;;;10.18;2.30;;;;;;;;;;5068151;28;20056;-77
2023/07/30 11:21:04;;;;;;;16.33;3.00;;;;;;;;;;5069535;28;20084;-77
2023/07/30 11:23:30;;;;;;;9.13;2.08;;;;;;;;;;5075435;28;20395;-77
2023/07/30 11:25:56;;;;;;;9.13;2.60;;;;;;;;;;5074823;28;20041;-78
2023/07/30 11:28:29;;;;;;;7.68;2.00;;;;;;;;;;5073647;28;20481;-77
2023/07/30 11:30:56;;;;;;;11.52;2.80;;;;;;;;;;5075071;28;20121;-77
2023/07/30 11:33:23;;;;;;;10.73;2.60;;;;;;;;;;5068831;28;20037;-78
2023/07/30 11:35:49;;;;;;;10.75;2.60;;;;;;;;;;5071512;28;20528;-77
2023/07/30 11:38:15;;;;;;;9.20;2.33;;;;;;;;;;5074855;28;20127;-77
2023/07/30 11:40:41;;;;;;;10.82;2.15;;;;;;;;;;5074257;28;20053;-77
2023/07/30 11:43:07;;;;;;;10.02;2.30;;;;;;;;;;5074571;28;20048;-77
2023/07/30 11:45:33;;;;;;;10.35;1.80;;;;;;;;;;5073287;28;20470;-76
2023/07/30 11:48:11;;;;;;;8.70;2.05;;;;;;;;;;5072780;28;20482;-76
2023/07/30 11:50:50;;;;;;;10.30;2.17;;;;;;;;;;5073472;28;20041;-77
2023/07/30 11:53:16;;;;;;;12.90;2.05;;;;;;;;;;5074746;28;20080;-78
2023/07/30 11:55:43;;;;;;;11.00;2.00;;;;;;;;;;5074804;28;20044;-78
2023/07/30 11:58:10;;;;;;;8.25;1.80;;;;;;;;;;5074741;28;20048;-78
2023/07/30 12:00:37;;;;;;;8.77;1.90;;;;;;;;;;5075326;28;20049;-78
2023/07/30 12:03:04;;;;;;;9.55;2.00;;;;;;;;;;5073795;28;20049;-78
2023/07/30 12:05:36;;;;;;;8.38;1.80;;;;;;;;;;5076027;28;20056;-78
2023/07/30 12:08:03;;;;;;;10.90;2.28;;;;;;;;;;5073626;28;20040;-77
2023/07/30 12:10:42;;;;;;;8.85;1.88;;;;;;;;;;5071266;28;20043;-77
2023/07/30 12:13:26;;;;;;;7.32;1.98;;;;;;;;;;5055678;28;20053;-78
2023/07/30 12:15:53;;;;;;;9.48;1.73;;;;;;;;;;5070968;28;20045;-78
2023/07/30 12:18:19;;;;;;;11.18;2.10;;;;;;;;;;5075086;28;20137;-82
2023/07/30 12:20:46;;;;;;;9.35;1.88;;;;;;;;;;5075223;28;20402;-78
2023/07/30 12:23:12;;;;;;;7.93;2.03;;;;;;;;;;5075130;28;20643;-78
2023/07/30 12:25:38;;;;;;;10.02;1.83;;;;;;;;;;5074185;28;20045;-78
2023/07/30 12:28:05;;;;;;;8.43;1.92;;;;;;;;;;5074340;28;20043;-78
2023/07/30 12:30:31;;;;;;;9.00;1.85;;;;;;;;;;5074380;28;20351;-78
2023/07/30 12:32:57;;;;;;;7.45;1.70;;;;;;;;;;5068234;28;20041;-78
2023/07/30 12:35:24;;;;;;;9.95;1.95;;;;;;;;;;5071213;28;20098;-77
2023/07/30 12:37:50;;;;;;;8.38;2.35;;;;;;;;;;5068410;28;20037;-76
2023/07/30 12:40:17;;;;;;;8.40;1.75;;;;;;;;;;5068841;28;20044;-77
2023/07/30 12:42:43;;;;;;;9.52;1.88;;;;;;;;;;5073085;28;20066;-79
2023/07/30 12:45:09;;;;;;;13.00;2.53;;;;;;;;;;5088140;28;20059;-79
2023/07/30 12:47:36;;;;;;;9.45;2.13;;;;;;;;;;5092704;28;20040;-79
2023/07/30 12:50:02;;;;;;;9.93;2.00;;;;;;;;;;5081141;28;20060;-78
2023/07/30 12:52:29;;;;;;;8.15;2.10;;;;;;;;;;5055779;28;20398;-78
2023/07/30 12:54:55;;;;;;;10.63;2.38;;;;;;;;;;5080237;28;20041;-79
2023/07/30 12:57:21;;;;;;;11.60;2.03;;;;;;;;;;5072731;28;20487;-79
2023/07/30 12:59:47;;;;;;;7.72;1.90;;;;;;;;;;5056220;28;20078;-79
2023/07/30 13:02:13;;;;;;;8.77;1.73;;;;;;;;;;5070864;28;20448;-77
2023/07/30 13:04:39;;;;;;;9.30;2.17;;;;;;;;;;5070882;28;20052;-79
2023/07/30 13:07:05;;;;;;;8.90;1.70;;;;;;;;;;5069776;28;20052;-78
2023/07/30 13:09:32;;;;;;;10.40;1.60;;;;;;;;;;5072604;28;20048;-78
2023/07/30 13:11:58;;;;;;;10.32;1.65;;;;;;;;;;5063396;28;20509;-78
2023/07/30 13:14:24;;;;;;;10.20;2.22;;;;;;;;;;5055750;28;20118;-80
2023/07/30 13:16:50;;;;;;;11.25;2.42;;;;;;;;;;5065426;28;20056;-79
2023/07/30 13:19:16;;;;;;;8.75;1.30;;;;;;;;;;5080937;28;20055;-79
2023/07/30 13:21:42;;;;;;;6.50;1.52;;;;;;;;;;5072220;28;20069;-80
2023/07/30 13:24:08;;;;;;;8.75;1.50;;;;;;;;;;5064565;28;20465;-79
2023/07/30 13:26:36;;;;;;;6.68;1.38;;;;;;;;;;5072512;28;20040;-79
2023/07/30 13:29:02;;;;;;;6.20;1.40;;;;;;;;;;5068603;28;20037;-79
2023/07/30 13:31:28;;;;;;;6.68;1.33;;;;;;;;;;5068713;28;20049;-79
2023/07/30 13:33:54;;;;;;;7.57;1.58;;;;;;;;;;5076860;28;20048;-79
2023/07/30 13:36:20;;;;;;;4.75;1.10;;;;;;;;;;5072418;28;20123;-78
2023/07/30 13:38:47;;;;;;;7.82;1.48;;;;;;;;;;5069232;28;20082;-79
2023/07/30 13:41:13;;;;;;;6.53;1.50;;;;;;;;;;5079673;28;20041;-78
2023/07/30 13:43:39;;;;;;;7.45;1.80;;;;;;;;;;5073371;28;20094;-79
2023/07/30 13:46:06;;;;;;;8.25;2.00;;;;;;;;;;5068392;28;20094;-78
2023/07/30 13:48:31;;;;;;;6.50;1.60;;;;;;;;;;5072409;28;20048;-78
2023/07/30 13:50:57;;;;;;;9.80;2.05;;;;;;;;;;5063070;28;20045;-79
2023/07/30 13:53:23;;;;;;;9.20;2.15;;;;;;;;;;5055883;28;20082;-79
2023/07/30 13:55:50;;;;;;;9.18;2.03;;;;;;;;;;5072368;28;20036;-78
2023/07/30 13:58:16;;;;;;;9.52;1.85;;;;;;;;;;5072889;28;20040;-78
2023/07/30 14:00:42;;;;;;;7.70;1.70;;;;;;;;;;5069235;28;20124;-78
2023/07/30 14:03:09;;;;;;;8.35;1.60;;;;;;;;;;5054046;28;20551;-79
2023/07/30 14:05:35;;;;;;;7.57;1.45;;;;;;;;;;5073863;28;20047;-79
2023/07/30 14:08:01;;;;;;;6.32;1.30;;;;;;;;;;5067602;28;20037;-78
2023/07/30 14:10:27;;;;;;;8.70;1.77;;;;;;;;;;5058517;28;20053;-79
2023/07/30 14:12:53;;;;;;;7.80;1.67;;;;;;;;;;5073838;28;20044;-79
2023/07/30 14:15:19;;;;;;;9.15;1.52;;;;;;;;;;5068532;28;20075;-78
2023/07/30 14:17:45;;;;;;;7.60;1.60;;;;;;;;;;5055907;28;20057;-78
2023/07/30 14:20:11;;;;;;;10.10;1.80;;;;;;;;;;5059613;28;20056;-78
2023/07/30 14:22:38;;;;;;;7.45;1.77;;;;;;;;;;5059457;28;20084;-78
2023/07/30 14:25:04;;;;;;;9.38;1.80;;;;;;;;;;5074217;28;20048;-78
2023/07/30 14:27:30;;;;;;;7.45;1.52;;;;;;;;;;5077008;28;20531;-77
2023/07/30 14:29:56;;;;;;;9.27;1.40;;;;;;;;;;5096889;28;20040;-75